sensor_id;sensor_type;location;lat;lon;timestamp;pressure;altitude;pressure_sealevel;temperature;humidity
73566;BME280;61846;52.970;-3.168;2023-02-28T00:01:55;102593.11;;;9.86;41.26
73566;BME280;61846;52.970;-3.168;2023-02-28T00:04:20;102601.68;;;9.36;41.91
73566;BME280;61846;52.970;-3.168;2023-02-28T00:06:45;102601.72;;;10.07;41.18
73566;BME280;61846;52.970;-3.168;2023-02-28T00:09:11;102606.60;;;8.72;43.42
73566;BME280;61846;52.970;-3.168;2023-02-28T00:11:36;102599.38;;;9.52;41.99
73566;BME280;61846;52.970;-3.168;2023-02-28T00:14:02;102599.05;;;8.87;41.95
73566;BME280;61846;52.970;-3.168;2023-02-28T00:16:27;102605.92;;;9.41;42.64
73566;BME280;61846;52.970;-3.168;2023-02-28T00:18:53;102609.45;;;9.16;42.57
73566;BME280;61846;52.970;-3.168;2023-02-28T00:21:20;102613.14;;;8.09;44.62
73566;BME280;61846;52.970;-3.168;2023-02-28T00:23:45;102602.81;;;8.91;44.29
73566;BME280;61846;52.970;-3.168;2023-02-28T00:26:10;102609.06;;;8.44;43.98
73566;BME280;61846;52.970;-3.168;2023-02-28T00:28:36;102609.70;;;8.04;44.97
73566;BME280;61846;52.970;-3.168;2023-02-28T00:31:01;102609.42;;;8.32;44.99
73566;BME280;61846;52.970;-3.168;2023-02-28T00:33:26;102616.36;;;8.89;43.97
73566;BME280;61846;52.970;-3.168;2023-02-28T00:35:51;102615.97;;;7.91;45.29
73566;BME280;61846;52.970;-3.168;2023-02-28T00:38:17;102619.60;;;8.62;44.31
73566;BME280;61846;52.970;-3.168;2023-02-28T00:40:42;102618.83;;;8.30;44.27
73566;BME280;61846;52.970;-3.168;2023-02-28T00:43:08;102614.04;;;9.17;42.67
73566;BME280;61846;52.970;-3.168;2023-02-28T00:45:34;102615.74;;;9.18;42.43
73566;BME280;61846;52.970;-3.168;2023-02-28T00:48:00;102616.93;;;8.41;43.09
73566;BME280;61846;52.970;-3.168;2023-02-28T00:50:25;102620.25;;;7.74;45.23
73566;BME280;61846;52.970;-3.168;2023-02-28T00:52:51;102619.54;;;9.43;42.19
73566;BME280;61846;52.970;-3.168;2023-02-28T00:55:16;102615.35;;;9.22;42.49
73566;BME280;61846;52.970;-3.168;2023-02-28T00:57:42;102618.05;;;9.24;42.32
73566;BME280;61846;52.970;-3.168;2023-02-28T01:00:09;102614.77;;;9.43;41.49
73566;BME280;61846;52.970;-3.168;2023-02-28T01:02:33;102618.96;;;9.42;41.81
73566;BME280;61846;52.970;-3.168;2023-02-28T01:04:59;102618.67;;;9.83;41.59
73566;BME280;61846;52.970;-3.168;2023-02-28T01:07:25;102621.33;;;10.29;41.04
73566;BME280;61846;52.970;-3.168;2023-02-28T01:09:50;102622.74;;;10.29;40.76
73566;BME280;61846;52.970;-3.168;2023-02-28T01:12:16;102621.12;;;9.56;41.77
73566;BME280;61846;52.970;-3.168;2023-02-28T01:14:42;102621.25;;;9.96;41.58
73566;BME280;61846;52.970;-3.168;2023-02-28T01:17:07;102618.86;;;10.26;41.49
73566;BME280;61846;52.970;-3.168;2023-02-28T01:19:33;102620.42;;;9.66;43.19
73566;BME280;61846;52.970;-3.168;2023-02-28T01:22:01;102622.40;;;8.84;43.23
73566;BME280;61846;52.970;-3.168;2023-02-28T01:24:23;102621.97;;;8.20;45.30
73566;BME280;61846;52.970;-3.168;2023-02-28T01:26:48;102616.32;;;9.71;43.12
73566;BME280;61846;52.970;-3.168;2023-02-28T01:29:15;102617.81;;;10.31;42.66
73566;BME280;61846;52.970;-3.168;2023-02-28T01:31:39;102618.16;;;10.06;43.16
73566;BME280;61846;52.970;-3.168;2023-02-28T01:34:05;102624.11;;;9.73;42.67
73566;BME280;61846;52.970;-3.168;2023-02-28T01:36:30;102629.62;;;9.64;43.81
73566;BME280;61846;52.970;-3.168;2023-02-28T01:38:55;102635.93;;;8.84;45.30
73566;BME280;61846;52.970;-3.168;2023-02-28T01:41:22;102630.41;;;9.03;45.15
73566;BME280;61846;52.970;-3.168;2023-02-28T01:43:56;102629.55;;;6.84;48.18
73566;BME280;61846;52.970;-3.168;2023-02-28T01:46:14;102627.60;;;8.16;45.68
73566;BME280;61846;52.970;-3.168;2023-02-28T01:48:40;102630.31;;;8.99;43.85
73566;BME280;61846;52.970;-3.168;2023-02-28T01:51:06;102632.22;;;9.51;42.53
73566;BME280;61846;52.970;-3.168;2023-02-28T01:53:32;102638.50;;;8.68;43.77
73566;BME280;61846;52.970;-3.168;2023-02-28T01:55:55;102631.91;;;8.99;42.58
73566;BME280;61846;52.970;-3.168;2023-02-28T01:58:21;102631.93;;;8.75;43.35
73566;BME280;61846;52.970;-3.168;2023-02-28T02:00:45;102631.34;;;7.84;44.95
73566;BME280;61846;52.970;-3.168;2023-02-28T02:03:13;102631.47;;;8.57;44.78
73566;BME280;61846;52.970;-3.168;2023-02-28T02:05:37;102630.67;;;9.26;43.40
73566;BME280;61846;52.970;-3.168;2023-02-28T02:08:04;102631.67;;;7.32;45.47
73566;BME280;61846;52.970;-3.168;2023-02-28T02:10:31;102626.24;;;8.81;43.21
73566;BME280;61846;52.970;-3.168;2023-02-28T02:13:05;102626.13;;;8.98;42.93
73566;BME280;61846;52.970;-3.168;2023-02-28T02:15:21;102619.22;;;9.49;42.68
73566;BME280;61846;52.970;-3.168;2023-02-28T02:17:47;102618.31;;;10.06;41.62
73566;BME280;61846;52.970;-3.168;2023-02-28T02:22:47;102618.33;;;9.27;42.83
73566;BME280;61846;52.970;-3.168;2023-02-28T02:25:11;102626.88;;;8.83;43.41
73566;BME280;61846;52.970;-3.168;2023-02-28T02:27:38;102623.73;;;9.64;42.44
73566;BME280;61846;52.970;-3.168;2023-02-28T02:30:08;102625.24;;;8.65;43.64
73566;BME280;61846;52.970;-3.168;2023-02-28T02:34:49;102627.30;;;9.02;42.81
73566;BME280;61846;52.970;-3.168;2023-02-28T02:37:15;102623.49;;;7.68;44.84
73566;BME280;61846;52.970;-3.168;2023-02-28T02:39:40;102620.66;;;9.56;41.63
73566;BME280;61846;52.970;-3.168;2023-02-28T02:42:02;102620.43;;;8.31;42.88
73566;BME280;61846;52.970;-3.168;2023-02-28T02:44:29;102618.95;;;9.22;42.07
73566;BME280;61846;52.970;-3.168;2023-02-28T02:46:57;102613.10;;;9.89;41.23
73566;BME280;61846;52.970;-3.168;2023-02-28T02:49:21;102617.89;;;9.20;41.47
73566;BME280;61846;52.970;-3.168;2023-02-28T02:51:43;102616.97;;;9.25;41.98
73566;BME280;61846;52.970;-3.168;2023-02-28T02:54:11;102622.21;;;8.82;42.30
73566;BME280;61846;52.970;-3.168;2023-02-28T02:56:34;102622.11;;;8.51;43.07
73566;BME280;61846;52.970;-3.168;2023-02-28T02:59:01;102620.24;;;8.85;43.01
73566;BME280;61846;52.970;-3.168;2023-02-28T03:01:25;102616.51;;;9.13;42.64
73566;BME280;61846;52.970;-3.168;2023-02-28T03:03:49;102617.28;;;9.44;42.28
73566;BME280;61846;52.970;-3.168;2023-02-28T03:06:15;102623.56;;;7.78;44.19
73566;BME280;61846;52.970;-3.168;2023-02-28T03:08:40;102619.20;;;9.19;42.86
73566;BME280;61846;52.970;-3.168;2023-02-28T03:11:07;102613.25;;;8.94;42.50
73566;BME280;61846;52.970;-3.168;2023-02-28T03:13:44;102611.04;;;9.27;42.42
73566;BME280;61846;52.970;-3.168;2023-02-28T03:16:06;102611.83;;;8.70;42.79
73566;BME280;61846;52.970;-3.168;2023-02-28T03:18:26;102608.17;;;9.48;41.89
73566;BME280;61846;52.970;-3.168;2023-02-28T03:20:54;102610.49;;;9.63;42.24
73566;BME280;61846;52.970;-3.168;2023-02-28T03:23:16;102612.94;;;8.90;43.10
73566;BME280;61846;52.970;-3.168;2023-02-28T03:25:46;102608.06;;;9.46;42.29
73566;BME280;61846;52.970;-3.168;2023-02-28T03:28:08;102607.98;;;9.12;41.79
73566;BME280;61846;52.970;-3.168;2023-02-28T03:30:35;102614.30;;;8.61;42.82
73566;BME280;61846;52.970;-3.168;2023-02-28T03:32:58;102612.24;;;7.73;44.06
73566;BME280;61846;52.970;-3.168;2023-02-28T03:35:23;102614.86;;;8.20;43.37
73566;BME280;61846;52.970;-3.168;2023-02-28T03:37:46;102615.61;;;7.36;45.48
73566;BME280;61846;52.970;-3.168;2023-02-28T03:40:14;102612.28;;;7.39;44.88
73566;BME280;61846;52.970;-3.168;2023-02-28T03:42:38;102617.42;;;7.35;45.91
73566;BME280;61846;52.970;-3.168;2023-02-28T03:45:05;102615.16;;;7.90;45.08
73566;BME280;61846;52.970;-3.168;2023-02-28T03:47:30;102617.54;;;7.56;45.31
73566;BME280;61846;52.970;-3.168;2023-02-28T03:49:56;102618.21;;;8.52;44.13
73566;BME280;61846;52.970;-3.168;2023-02-28T03:52:19;102621.66;;;7.90;45.37
73566;BME280;61846;52.970;-3.168;2023-02-28T03:54:45;102619.45;;;7.57;46.10
73566;BME280;61846;52.970;-3.168;2023-02-28T03:57:13;102623.09;;;6.94;47.61
73566;BME280;61846;52.970;-3.168;2023-02-28T03:59:37;102619.69;;;7.69;46.71
73566;BME280;61846;52.970;-3.168;2023-02-28T04:02:00;102620.20;;;6.63;46.93
73566;BME280;61846;52.970;-3.168;2023-02-28T04:04:25;102623.77;;;8.25;45.08
73566;BME280;61846;52.970;-3.168;2023-02-28T04:06:51;102622.86;;;7.32;47.39
73566;BME280;61846;52.970;-3.168;2023-02-28T04:09:16;102619.33;;;7.03;47.41
73566;BME280;61846;52.970;-3.168;2023-02-28T04:11:43;102619.07;;;7.96;45.83
73566;BME280;61846;52.970;-3.168;2023-02-28T04:14:09;102620.20;;;8.36;45.22
73566;BME280;61846;52.970;-3.168;2023-02-28T04:16:33;102621.34;;;8.33;45.08
73566;BME280;61846;52.970;-3.168;2023-02-28T04:18:58;102626.91;;;8.57;44.74
73566;BME280;61846;52.970;-3.168;2023-02-28T04:21:23;102631.33;;;8.48;45.10
73566;BME280;61846;52.970;-3.168;2023-02-28T04:23:48;102631.28;;;8.45;45.55
73566;BME280;61846;52.970;-3.168;2023-02-28T04:26:14;102631.16;;;8.10;45.26
73566;BME280;61846;52.970;-3.168;2023-02-28T04:28:39;102631.13;;;6.87;47.62
73566;BME280;61846;52.970;-3.168;2023-02-28T04:31:05;102630.38;;;7.64;46.99
73566;BME280;61846;52.970;-3.168;2023-02-28T04:33:31;102633.44;;;7.07;47.13
73566;BME280;61846;52.970;-3.168;2023-02-28T04:36:00;102635.01;;;7.66;45.67
73566;BME280;61846;52.970;-3.168;2023-02-28T04:38:21;102635.57;;;6.23;48.71
73566;BME280;61846;52.970;-3.168;2023-02-28T04:40:46;102638.72;;;6.22;49.78
73566;BME280;61846;52.970;-3.168;2023-02-28T04:43:12;102641.77;;;5.73;50.47
73566;BME280;61846;52.970;-3.168;2023-02-28T04:45:37;102643.73;;;6.72;48.09
73566;BME280;61846;52.970;-3.168;2023-02-28T04:48:03;102639.68;;;7.11;46.97
73566;BME280;61846;52.970;-3.168;2023-02-28T04:50:28;102636.83;;;7.06;47.49
73566;BME280;61846;52.970;-3.168;2023-02-28T04:52:53;102635.76;;;7.91;45.85
73566;BME280;61846;52.970;-3.168;2023-02-28T04:55:19;102640.12;;;7.96;45.27
73566;BME280;61846;52.970;-3.168;2023-02-28T04:57:45;102636.71;;;8.56;44.32
73566;BME280;61846;52.970;-3.168;2023-02-28T05:00:11;102633.71;;;7.83;44.99
73566;BME280;61846;52.970;-3.168;2023-02-28T05:02:36;102632.59;;;7.86;45.42
73566;BME280;61846;52.970;-3.168;2023-02-28T05:05:01;102632.01;;;7.43;46.34
73566;BME280;61846;52.970;-3.168;2023-02-28T05:07:26;102632.37;;;7.27;46.48
73566;BME280;61846;52.970;-3.168;2023-02-28T05:09:52;102633.29;;;7.55;46.46
73566;BME280;61846;52.970;-3.168;2023-02-28T05:12:17;102639.04;;;5.74;48.83
73566;BME280;61846;52.970;-3.168;2023-02-28T05:14:43;102635.27;;;7.73;45.43
73566;BME280;61846;52.970;-3.168;2023-02-28T05:17:08;102636.02;;;8.05;44.83
73566;BME280;61846;52.970;-3.168;2023-02-28T05:19:33;102632.02;;;8.38;44.01
73566;BME280;61846;52.970;-3.168;2023-02-28T05:21:59;102631.99;;;6.96;45.60
73566;BME280;61846;52.970;-3.168;2023-02-28T05:24:24;102633.49;;;7.25;46.04
73566;BME280;61846;52.970;-3.168;2023-02-28T05:26:51;102639.10;;;7.73;45.80
73566;BME280;61846;52.970;-3.168;2023-02-28T05:29:15;102638.78;;;7.97;45.11
73566;BME280;61846;52.970;-3.168;2023-02-28T05:31:40;102639.95;;;7.92;45.06
73566;BME280;61846;52.970;-3.168;2023-02-28T05:34:06;102643.16;;;7.16;45.92
73566;BME280;61846;52.970;-3.168;2023-02-28T05:36:32;102652.20;;;8.07;44.42
73566;BME280;61846;52.970;-3.168;2023-02-28T05:38:57;102653.55;;;8.42;43.60
73566;BME280;61846;52.970;-3.168;2023-02-28T05:41:23;102653.02;;;8.43;43.77
73566;BME280;61846;52.970;-3.168;2023-02-28T05:43:48;102658.62;;;8.34;44.38
73566;BME280;61846;52.970;-3.168;2023-02-28T05:46:14;102663.18;;;7.91;44.69
73566;BME280;61846;52.970;-3.168;2023-02-28T05:48:42;102668.34;;;8.37;43.50
73566;BME280;61846;52.970;-3.168;2023-02-28T05:51:05;102666.06;;;8.58;43.79
73566;BME280;61846;52.970;-3.168;2023-02-28T05:53:30;102665.91;;;8.58;43.72
73566;BME280;61846;52.970;-3.168;2023-02-28T05:55:55;102666.81;;;9.05;42.34
73566;BME280;61846;52.970;-3.168;2023-02-28T05:58:21;102671.20;;;8.97;42.47
73566;BME280;61846;52.970;-3.168;2023-02-28T06:00:46;102671.55;;;9.39;42.67
73566;BME280;61846;52.970;-3.168;2023-02-28T06:03:11;102674.20;;;8.82;43.48
73566;BME280;61846;52.970;-3.168;2023-02-28T06:05:36;102676.43;;;9.16;42.22
73566;BME280;61846;52.970;-3.168;2023-02-28T06:08:02;102680.42;;;8.16;42.89
73566;BME280;61846;52.970;-3.168;2023-02-28T06:10:27;102682.63;;;8.90;42.27
73566;BME280;61846;52.970;-3.168;2023-02-28T06:12:53;102683.94;;;7.61;45.58
73566;BME280;61846;52.970;-3.168;2023-02-28T06:15:19;102686.45;;;6.67;47.78
73566;BME280;61846;52.970;-3.168;2023-02-28T06:17:44;102685.20;;;7.94;45.78
73566;BME280;61846;52.970;-3.168;2023-02-28T06:20:11;102683.86;;;8.34;44.31
73566;BME280;61846;52.970;-3.168;2023-02-28T06:22:35;102685.39;;;8.70;43.76
73566;BME280;61846;52.970;-3.168;2023-02-28T06:25:00;102684.57;;;8.66;44.31
73566;BME280;61846;52.970;-3.168;2023-02-28T06:27:25;102687.91;;;9.05;43.59
73566;BME280;61846;52.970;-3.168;2023-02-28T06:29:54;102687.05;;;9.41;42.57
73566;BME280;61846;52.970;-3.168;2023-02-28T06:32:17;102684.72;;;9.39;42.58
73566;BME280;61846;52.970;-3.168;2023-02-28T06:34:42;102685.72;;;9.55;42.37
73566;BME280;61846;52.970;-3.168;2023-02-28T06:37:08;102683.58;;;9.77;42.01
73566;BME280;61846;52.970;-3.168;2023-02-28T06:39:33;102683.82;;;9.57;42.45
73566;BME280;61846;52.970;-3.168;2023-02-28T06:41:58;102684.59;;;8.89;43.08
73566;BME280;61846;52.970;-3.168;2023-02-28T06:44:24;102680.91;;;9.38;42.79
73566;BME280;61846;52.970;-3.168;2023-02-28T06:46:49;102688.55;;;9.36;43.00
73566;BME280;61846;52.970;-3.168;2023-02-28T06:49:14;102690.57;;;9.49;42.81
73566;BME280;61846;52.970;-3.168;2023-02-28T06:51:41;102694.06;;;9.95;42.26
73566;BME280;61846;52.970;-3.168;2023-02-28T06:54:05;102694.93;;;8.21;44.19
73566;BME280;61846;52.970;-3.168;2023-02-28T06:56:30;102694.62;;;9.20;43.46
73566;BME280;61846;52.970;-3.168;2023-02-28T06:58:55;102695.76;;;9.70;42.66
73566;BME280;61846;52.970;-3.168;2023-02-28T07:01:21;102700.98;;;8.94;43.53
73566;BME280;61846;52.970;-3.168;2023-02-28T07:03:47;102701.68;;;9.19;43.72
73566;BME280;61846;52.970;-3.168;2023-02-28T07:06:12;102704.46;;;8.82;43.97
73566;BME280;61846;52.970;-3.168;2023-02-28T07:08:38;102708.28;;;8.81;44.56
73566;BME280;61846;52.970;-3.168;2023-02-28T07:11:04;102704.58;;;8.59;44.48
73566;BME280;61846;52.970;-3.168;2023-02-28T07:13:28;102701.92;;;9.06;44.01
73566;BME280;61846;52.970;-3.168;2023-02-28T07:15:55;102700.50;;;8.85;43.45
73566;BME280;61846;52.970;-3.168;2023-02-28T07:18:20;102704.87;;;9.17;43.27
73566;BME280;61846;52.970;-3.168;2023-02-28T07:20:45;102700.99;;;7.36;46.31
73566;BME280;61846;52.970;-3.168;2023-02-28T07:23:11;102706.83;;;8.67;44.19
73566;BME280;61846;52.970;-3.168;2023-02-28T07:25:36;102713.91;;;8.93;44.02
73566;BME280;61846;52.970;-3.168;2023-02-28T07:28:02;102716.79;;;8.55;43.85
73566;BME280;61846;52.970;-3.168;2023-02-28T07:30:28;102721.46;;;5.84;48.74
73566;BME280;61846;52.970;-3.168;2023-02-28T07:32:53;102720.81;;;7.96;46.73
73566;BME280;61846;52.970;-3.168;2023-02-28T07:35:19;102716.35;;;8.55;45.84
73566;BME280;61846;52.970;-3.168;2023-02-28T07:37:44;102721.48;;;6.87;48.17
73566;BME280;61846;52.970;-3.168;2023-02-28T07:40:11;102719.14;;;8.24;44.78
73566;BME280;61846;52.970;-3.168;2023-02-28T07:42:34;102716.49;;;8.48;45.16
73566;BME280;61846;52.970;-3.168;2023-02-28T07:45:00;102710.28;;;7.82;45.67
73566;BME280;61846;52.970;-3.168;2023-02-28T07:47:25;102711.22;;;8.18;46.03
73566;BME280;61846;52.970;-3.168;2023-02-28T07:49:51;102717.84;;;8.61;45.19
73566;BME280;61846;52.970;-3.168;2023-02-28T07:52:16;102724.06;;;8.40;44.85
73566;BME280;61846;52.970;-3.168;2023-02-28T07:54:42;102722.86;;;9.07;43.91
73566;BME280;61846;52.970;-3.168;2023-02-28T07:57:07;102727.73;;;8.90;44.18
73566;BME280;61846;52.970;-3.168;2023-02-28T07:59:33;102731.11;;;9.05;43.78
73566;BME280;61846;52.970;-3.168;2023-02-28T08:01:59;102734.61;;;8.46;42.93
73566;BME280;61846;52.970;-3.168;2023-02-28T08:04:24;102736.22;;;9.43;42.15
73566;BME280;61846;52.970;-3.168;2023-02-28T08:06:51;102729.98;;;8.41;41.61
73566;BME280;61846;52.970;-3.168;2023-02-28T08:09:16;102731.92;;;10.16;40.68
73566;BME280;61846;52.970;-3.168;2023-02-28T08:11:41;102727.37;;;10.40;40.32
73566;BME280;61846;52.970;-3.168;2023-02-28T08:14:07;102737.40;;;9.78;40.57
73566;BME280;61846;52.970;-3.168;2023-02-28T08:16:32;102734.12;;;10.34;40.24
73566;BME280;61846;52.970;-3.168;2023-02-28T08:18:58;102737.41;;;9.86;41.30
73566;BME280;61846;52.970;-3.168;2023-02-28T08:21:24;102735.86;;;10.25;40.41
73566;BME280;61846;52.970;-3.168;2023-02-28T08:23:50;102737.72;;;9.71;42.42
73566;BME280;61846;52.970;-3.168;2023-02-28T08:26:15;102739.58;;;9.46;41.33
73566;BME280;61846;52.970;-3.168;2023-02-28T08:28:41;102742.82;;;10.21;41.12
73566;BME280;61846;52.970;-3.168;2023-02-28T08:31:09;102739.15;;;8.96;42.70
73566;BME280;61846;52.970;-3.168;2023-02-28T08:33:32;102738.10;;;8.93;43.27
73566;BME280;61846;52.970;-3.168;2023-02-28T08:35:58;102741.63;;;9.47;41.65
73566;BME280;61846;52.970;-3.168;2023-02-28T08:38:23;102742.08;;;9.42;41.98
73566;BME280;61846;52.970;-3.168;2023-02-28T08:40:49;102745.45;;;8.77;43.28
73566;BME280;61846;52.970;-3.168;2023-02-28T08:43:14;102742.25;;;9.18;42.81
73566;BME280;61846;52.970;-3.168;2023-02-28T08:45:40;102741.71;;;9.43;42.69
73566;BME280;61846;52.970;-3.168;2023-02-28T08:48:06;102741.76;;;9.72;42.60
73566;BME280;61846;52.970;-3.168;2023-02-28T08:50:31;102742.00;;;9.75;42.55
73566;BME280;61846;52.970;-3.168;2023-02-28T08:52:57;102744.87;;;9.17;43.59
73566;BME280;61846;52.970;-3.168;2023-02-28T08:55:23;102741.56;;;9.02;43.32
73566;BME280;61846;52.970;-3.168;2023-02-28T08:57:48;102738.93;;;8.89;43.74
73566;BME280;61846;52.970;-3.168;2023-02-28T09:00:14;102740.33;;;9.63;42.64
73566;BME280;61846;52.970;-3.168;2023-02-28T09:02:40;102741.28;;;9.69;42.28
73566;BME280;61846;52.970;-3.168;2023-02-28T09:05:06;102740.39;;;9.49;42.60
73566;BME280;61846;52.970;-3.168;2023-02-28T09:07:31;102740.75;;;9.02;43.49
73566;BME280;61846;52.970;-3.168;2023-02-28T09:09:57;102739.80;;;9.00;43.09
73566;BME280;61846;52.970;-3.168;2023-02-28T09:12:24;102737.75;;;8.62;44.19
73566;BME280;61846;52.970;-3.168;2023-02-28T09:14:48;102734.56;;;9.08;43.98
73566;BME280;61846;52.970;-3.168;2023-02-28T09:17:13;102734.56;;;8.76;44.26
73566;BME280;61846;52.970;-3.168;2023-02-28T09:19:39;102740.19;;;8.66;44.81
73566;BME280;61846;52.970;-3.168;2023-02-28T09:22:05;102744.78;;;7.56;45.99
73566;BME280;61846;52.970;-3.168;2023-02-28T09:24:30;102741.43;;;8.65;43.86
73566;BME280;61846;52.970;-3.168;2023-02-28T09:26:55;102746.43;;;9.36;44.23
73566;BME280;61846;52.970;-3.168;2023-02-28T09:29:21;102741.44;;;8.49;44.12
73566;BME280;61846;52.970;-3.168;2023-02-28T09:31:47;102739.62;;;8.51;45.07
73566;BME280;61846;52.970;-3.168;2023-02-28T09:34:13;102742.05;;;9.40;43.28
73566;BME280;61846;52.970;-3.168;2023-02-28T09:36:38;102740.21;;;9.24;43.27
73566;BME280;61846;52.970;-3.168;2023-02-28T09:39:04;102742.38;;;9.50;42.47
73566;BME280;61846;52.970;-3.168;2023-02-28T09:41:36;102742.46;;;9.62;43.21
73566;BME280;61846;52.970;-3.168;2023-02-28T09:43:57;102741.17;;;9.52;43.39
73566;BME280;61846;52.970;-3.168;2023-02-28T09:46:29;102747.97;;;8.76;43.77
73566;BME280;61846;52.970;-3.168;2023-02-28T09:48:47;102744.53;;;9.16;43.36
73566;BME280;61846;52.970;-3.168;2023-02-28T09:53:37;102749.39;;;9.18;43.28
73566;BME280;61846;52.970;-3.168;2023-02-28T09:56:05;102747.44;;;8.34;44.78
73566;BME280;61846;52.970;-3.168;2023-02-28T09:58:32;102748.43;;;9.63;42.53
73566;BME280;61846;52.970;-3.168;2023-02-28T10:01:00;102746.95;;;9.20;42.33
73566;BME280;61846;52.970;-3.168;2023-02-28T10:03:30;102747.82;;;9.30;42.04
73566;BME280;61846;52.970;-3.168;2023-02-28T10:05:48;102743.30;;;10.22;40.81
73566;BME280;61846;52.970;-3.168;2023-02-28T10:08:14;102745.66;;;9.11;42.16
73566;BME280;61846;52.970;-3.168;2023-02-28T10:10:39;102749.04;;;9.27;42.22
73566;BME280;61846;52.970;-3.168;2023-02-28T10:13:02;102751.99;;;9.91;41.89
73566;BME280;61846;52.970;-3.168;2023-02-28T10:15:27;102750.37;;;10.57;40.58
73566;BME280;61846;52.970;-3.168;2023-02-28T10:17:54;102747.71;;;10.98;39.68
73566;BME280;61846;52.970;-3.168;2023-02-28T10:20:20;102747.69;;;10.03;40.56
73566;BME280;61846;52.970;-3.168;2023-02-28T10:22:51;102750.83;;;8.79;41.97
73566;BME280;61846;52.970;-3.168;2023-02-28T10:25:16;102746.99;;;8.96;42.22
73566;BME280;61846;52.970;-3.168;2023-02-28T10:27:33;102748.42;;;9.11;43.28
73566;BME280;61846;52.970;-3.168;2023-02-28T10:30:00;102746.70;;;7.86;43.09
73566;BME280;61846;52.970;-3.168;2023-02-28T10:32:26;102743.43;;;7.39;44.52
73566;BME280;61846;52.970;-3.168;2023-02-28T10:34:52;102740.91;;;8.76;42.14
73566;BME280;61846;52.970;-3.168;2023-02-28T10:37:15;102746.08;;;8.81;43.27
73566;BME280;61846;52.970;-3.168;2023-02-28T10:39:42;102745.83;;;9.91;41.71
73566;BME280;61846;52.970;-3.168;2023-02-28T10:42:20;102747.10;;;9.43;41.27
73566;BME280;61846;52.970;-3.168;2023-02-28T10:44:31;102749.23;;;8.43;43.55
73566;BME280;61846;52.970;-3.168;2023-02-28T10:46:56;102744.70;;;9.54;41.41
73566;BME280;61846;52.970;-3.168;2023-02-28T10:49:23;102743.33;;;8.83;41.42
73566;BME280;61846;52.970;-3.168;2023-02-28T10:51:52;102741.06;;;9.38;42.74
73566;BME280;61846;52.970;-3.168;2023-02-28T10:54:16;102741.51;;;9.00;42.03
73566;BME280;61846;52.970;-3.168;2023-02-28T10:56:38;102737.86;;;10.25;41.29
73566;BME280;61846;52.970;-3.168;2023-02-28T11:01:37;102736.74;;;8.78;42.90
73566;BME280;61846;52.970;-3.168;2023-02-28T11:03:54;102735.58;;;10.20;40.90
73566;BME280;61846;52.970;-3.168;2023-02-28T11:06:21;102736.99;;;9.47;40.95
73566;BME280;61846;52.970;-3.168;2023-02-28T11:08:47;102737.84;;;10.08;41.34
73566;BME280;61846;52.970;-3.168;2023-02-28T11:11:09;102739.10;;;8.87;42.20
73566;BME280;61846;52.970;-3.168;2023-02-28T11:13:36;102737.63;;;9.78;41.36
73566;BME280;61846;52.970;-3.168;2023-02-28T11:16:02;102733.23;;;8.17;41.55
73566;BME280;61846;52.970;-3.168;2023-02-28T11:18:29;102730.93;;;9.00;41.80
73566;BME280;61846;52.970;-3.168;2023-02-28T11:20:53;102725.87;;;10.10;41.71
73566;BME280;61846;52.970;-3.168;2023-02-28T11:23:17;102728.28;;;9.15;41.89
73566;BME280;61846;52.970;-3.168;2023-02-28T11:25:47;102716.69;;;9.64;41.16
73566;BME280;61846;52.970;-3.168;2023-02-28T11:30:36;102718.52;;;9.28;41.78
73566;BME280;61846;52.970;-3.168;2023-02-28T11:32:59;102723.69;;;9.46;41.46
73566;BME280;61846;52.970;-3.168;2023-02-28T11:35:28;102728.73;;;8.91;42.08
73566;BME280;61846;52.970;-3.168;2023-02-28T11:37:50;102727.80;;;9.39;40.98
73566;BME280;61846;52.970;-3.168;2023-02-28T11:40:17;102729.90;;;7.01;44.44
73566;BME280;61846;52.970;-3.168;2023-02-28T11:42:53;102722.24;;;9.06;41.47
73566;BME280;61846;52.970;-3.168;2023-02-28T11:45:16;102719.67;;;9.18;40.68
73566;BME280;61846;52.970;-3.168;2023-02-28T11:47:37;102715.25;;;9.23;40.10
73566;BME280;61846;52.970;-3.168;2023-02-28T11:50:11;102703.05;;;9.03;41.98
73566;BME280;61846;52.970;-3.168;2023-02-28T11:52:33;102702.46;;;8.86;40.68
73566;BME280;61846;52.970;-3.168;2023-02-28T11:55:02;102698.30;;;10.87;40.35
73566;BME280;61846;52.970;-3.168;2023-02-28T11:57:25;102696.38;;;11.16;40.03
73566;BME280;61846;52.970;-3.168;2023-02-28T11:59:51;102697.23;;;10.18;39.29
73566;BME280;61846;52.970;-3.168;2023-02-28T12:02:20;102697.47;;;9.43;38.28
73566;BME280;61846;52.970;-3.168;2023-02-28T12:04:38;102690.38;;;10.37;36.89
73566;BME280;61846;52.970;-3.168;2023-02-28T12:07:03;102687.35;;;11.64;35.56
73566;BME280;61846;52.970;-3.168;2023-02-28T12:09:33;102685.36;;;11.13;37.52
73566;BME280;61846;52.970;-3.168;2023-02-28T12:11:53;102686.46;;;11.13;36.99
73566;BME280;61846;52.970;-3.168;2023-02-28T12:14:27;102680.39;;;10.38;37.70
73566;BME280;61846;52.970;-3.168;2023-02-28T12:16:54;102679.53;;;10.91;37.85
73566;BME280;61846;52.970;-3.168;2023-02-28T12:19:14;102677.21;;;10.34;38.35
73566;BME280;61846;52.970;-3.168;2023-02-28T12:21:41;102681.65;;;9.66;38.86
73566;BME280;61846;52.970;-3.168;2023-02-28T12:24:08;102676.93;;;9.30;37.93
73566;BME280;61846;52.970;-3.168;2023-02-28T12:26:29;102680.84;;;9.72;39.38
73566;BME280;61846;52.970;-3.168;2023-02-28T12:28:51;102676.35;;;9.31;39.11
73566;BME280;61846;52.970;-3.168;2023-02-28T12:31:18;102672.66;;;10.06;38.05
73566;BME280;61846;52.970;-3.168;2023-02-28T12:33:43;102668.36;;;10.54;38.83
73566;BME280;61846;52.970;-3.168;2023-02-28T12:36:09;102668.00;;;8.30;40.32
73566;BME280;61846;52.970;-3.168;2023-02-28T12:38:36;102664.94;;;9.93;39.24
73566;BME280;61846;52.970;-3.168;2023-02-28T12:41:00;102659.37;;;10.40;38.57
73566;BME280;61846;52.970;-3.168;2023-02-28T12:43:27;102653.13;;;11.10;37.88
73566;BME280;61846;52.970;-3.168;2023-02-28T12:45:51;102651.73;;;11.07;37.45
73566;BME280;61846;52.970;-3.168;2023-02-28T12:48:15;102649.65;;;11.00;37.08
73566;BME280;61846;52.970;-3.168;2023-02-28T12:50:38;102648.85;;;11.38;36.02